createdAt,value
2023-03-21T00:00:24.954Z,100447.41
2023-03-21T00:01:27.315Z,100449.31
2023-03-21T00:02:29.667Z,100444.06
2023-03-21T00:03:34.233Z,100440.47
2023-03-21T00:04:50.386Z,100447.88
2023-03-21T00:05:54.021Z,100446.25
2023-03-21T00:06:56.527Z,100449.56
2023-03-21T00:08:01.194Z,100443.47
2023-03-21T00:09:04.630Z,100445.38
2023-03-21T00:10:15.521Z,100441.81
2023-03-21T00:11:18.980Z,100450.91
2023-03-21T00:12:22.267Z,100450.09
2023-03-21T00:13:26.601Z,100450.09
2023-03-21T00:14:31.326Z,100445.66
2023-03-21T00:15:48.510Z,100452.25
2023-03-21T00:16:57.422Z,100456.94
2023-03-21T00:18:04.491Z,100462.44
2023-03-21T00:19:07.702Z,100458.84
2023-03-21T00:20:15.718Z,100465.47
2023-03-21T00:21:40.976Z,100457.41
2023-03-21T00:22:44.869Z,100462.94
2023-03-21T00:23:47.784Z,100462.13
2023-03-21T00:24:49.989Z,100465.94
2023-03-21T00:25:52.435Z,100466.81
2023-03-21T00:27:02.223Z,100462.38
2023-03-21T00:28:12.847Z,100466.22
2023-03-21T00:29:17.684Z,100462.63
2023-03-21T00:30:24.159Z,100469.22
2023-03-21T00:31:26.695Z,100463.97
2023-03-21T00:32:28.993Z,100459.28
2023-03-21T00:33:32.460Z,100463.09
2023-03-21T00:34:43.070Z,100463.09
2023-03-21T00:36:01.818Z,100460.59
2023-03-21T00:37:07.401Z,100463.38
2023-03-21T00:38:10.484Z,100468.88
2023-03-21T00:39:17.185Z,100460.59
2023-03-21T00:40:27.940Z,100462.75
2023-03-21T00:41:43.105Z,100461.94
2023-03-21T00:42:45.917Z,100455.59
2023-03-21T00:43:48.180Z,100460.28
2023-03-21T00:44:50.440Z,100453.06
2023-03-21T00:45:52.728Z,100466.63
2023-03-21T00:47:06.465Z,100458.59
2023-03-21T00:48:10.099Z,100453.06
2023-03-21T00:49:12.510Z,100452.25
2023-03-21T00:50:16.782Z,100455.84
2023-03-21T00:51:26.693Z,100450.56
2023-03-21T00:52:40.533Z,100461.59
2023-03-21T00:53:43.326Z,100450.56
2023-03-21T00:54:46.960Z,100444.50
2023-03-21T00:55:50.720Z,100454.44
2023-03-21T00:56:53.708Z,100450.81
2023-03-21T00:58:02.176Z,100448.94
2023-03-21T00:59:05.853Z,100449.16
2023-03-21T01:00:10.899Z,100450.81
2023-03-21T01:01:13.397Z,100451.91
2023-03-21T01:02:23.508Z,100460.19
2023-03-21T01:03:26.793Z,100450.25
2023-03-21T01:04:29.485Z,100451.91
2023-03-21T01:05:53.757Z,100455.78
2023-03-21T01:06:56.278Z,100448.59
2023-03-21T01:07:58.605Z,100448.59
2023-03-21T01:09:01.867Z,100456.84
2023-03-21T01:10:04.532Z,100460.69
2023-03-21T01:11:09.816Z,100456.00
2023-03-21T01:12:12.120Z,100454.34
2023-03-21T01:13:17.094Z,100454.34
2023-03-21T01:14:23.512Z,100453.75
2023-03-21T01:15:26.686Z,100455.44
2023-03-21T01:16:29.116Z,100450.75
2023-03-21T01:17:32.021Z,100454.34
2023-03-21T01:18:38.308Z,100452.69
2023-03-21T01:19:51.476Z,100445.50
2023-03-21T01:20:57.413Z,100450.19
2023-03-21T01:21:59.977Z,100451.00
2023-03-21T01:23:02.570Z,100455.69
2023-03-21T01:24:05.340Z,100452.94
2023-03-21T01:25:21.927Z,100454.00
2023-03-21T01:26:25.138Z,100449.59
2023-03-21T01:27:27.405Z,100452.34
2023-03-21T01:28:30.922Z,100449.59
2023-03-21T01:29:33.803Z,100457.84
2023-03-21T01:30:41.680Z,100453.41
2023-03-21T01:31:44.456Z,100447.06
2023-03-21T01:32:47.482Z,100452.59
2023-03-21T01:33:50.453Z,100448.41
2023-03-21T01:34:53.310Z,100449.22
2023-03-21T01:36:10.270Z,100458.34
2023-03-21T01:37:17.867Z,100449.50
2023-03-21T01:38:26.050Z,100449.50
2023-03-21T01:39:28.617Z,100452.25
2023-03-21T01:40:31.099Z,100449.50
2023-03-21T01:41:44.787Z,100452.50
2023-03-21T01:43:02.266Z,100454.41
2023-03-21T01:44:05.401Z,100454.41
2023-03-21T01:45:52.442Z,100456.34
2023-03-21T01:47:12.200Z,100458.28
2023-03-21T01:48:22.101Z,100450.22
2023-03-21T01:49:36.153Z,100454.91
2023-03-21T01:51:05.184Z,100457.09
2023-03-21T01:52:33.279Z,100459.84
2023-03-21T01:53:41.803Z,100462.63
2023-03-21T01:54:47.846Z,100459.25
2023-03-21T01:55:50.724Z,100458.44
2023-03-21T01:57:16.453Z,100460.34
2023-03-21T01:58:19.269Z,100460.34
2023-03-21T01:59:54.840Z,100452.31
2023-03-21T02:01:23.035Z,100455.34
2023-03-21T02:02:31.583Z,100453.66
2023-03-21T02:03:52.273Z,100451.97
2023-03-21T02:05:48.038Z,100447.53
2023-03-21T02:07:03.823Z,100445.91
2023-03-21T02:08:15.128Z,100440.59
2023-03-21T02:09:22.756Z,100444.22
2023-03-21T02:10:25.568Z,100446.13
2023-03-21T02:11:32.312Z,100443.63
2023-03-21T02:12:34.652Z,100441.13
2023-03-21T02:13:38.553Z,100442.19
2023-03-21T02:14:43.933Z,100446.88
2023-03-21T02:16:12.862Z,100450.13
2023-03-21T02:17:33.357Z,100441.28
2023-03-21T02:18:39.777Z,100445.09
2023-03-21T02:20:07.595Z,100436.84
2023-03-21T02:21:48.266Z,100439.03
2023-03-21T02:23:27.458Z,100440.34
2023-03-21T02:25:01.563Z,100445.00
2023-03-21T02:26:28.464Z,100437.25
2023-03-21T02:27:46.298Z,100434.16
2023-03-21T02:29:30.418Z,100433.81
2023-03-21T02:30:39.962Z,100432.72
2023-03-21T02:32:28.435Z,100444.25
2023-03-21T02:33:47.699Z,100438.97
2023-03-21T02:34:54.769Z,100441.13
2023-03-21T02:36:17.046Z,100433.09
2023-03-21T02:37:36.969Z,100436.09
2023-03-21T02:39:23.431Z,100430.25
2023-03-21T02:40:33.325Z,100436.00
2023-03-21T02:41:57.993Z,100438.16
2023-03-21T02:43:24.455Z,100436.22
2023-03-21T02:44:41.664Z,100432.91
2023-03-21T02:46:18.809Z,100431.72
2023-03-21T02:47:40.170Z,100432.81
2023-03-21T02:48:53.550Z,100436.63
2023-03-21T02:50:02.861Z,100433.28
2023-03-21T02:51:07.777Z,100432.69
2023-03-21T02:52:31.893Z,100426.59
2023-03-21T02:53:43.987Z,100435.97
2023-03-21T02:54:49.318Z,100427.91
2023-03-21T02:55:57.778Z,100427.34
2023-03-21T02:57:04.506Z,100437.50
2023-03-21T02:58:13.434Z,100430.34
2023-03-21T02:59:27.664Z,100430.81
2023-03-21T03:00:33.748Z,100433.81
2023-03-21T03:01:37.513Z,100427.50
2023-03-21T03:02:41.243Z,100424.97
2023-03-21T03:03:44.442Z,100434.31
2023-03-21T03:04:47.924Z,100426.28
2023-03-21T03:05:57.102Z,100428.22
2023-03-21T03:07:28.934Z,100431.22
2023-03-21T03:08:56.253Z,100427.59
2023-03-21T03:10:04.805Z,100428.94
2023-03-21T03:11:21.985Z,100423.41
2023-03-21T03:13:01.757Z,100427.28
2023-03-21T03:14:44.268Z,100428.59
2023-03-21T03:16:11.930Z,100421.41
2023-03-21T03:17:26.282Z,100426.31
2023-03-21T03:18:49.773Z,100419.16
2023-03-21T03:20:21.835Z,100426.00
2023-03-21T03:21:33.519Z,100427.06
2023-03-21T03:22:54.746Z,100425.38
2023-03-21T03:24:01.659Z,100430.06
2023-03-21T03:25:21.351Z,100427.78
2023-03-21T03:26:38.960Z,100423.34
2023-03-21T03:27:44.906Z,100423.34
2023-03-21T03:28:52.107Z,100426.34
2023-03-21T03:30:00.855Z,100431.03
2023-03-21T03:31:09.676Z,100432.91
2023-03-21T03:32:26.143Z,100426.00
2023-03-21T03:33:29.825Z,100433.16
2023-03-21T03:34:39.733Z,100423.47
2023-03-21T03:35:48.287Z,100428.16
2023-03-21T03:37:00.594Z,100426.47
2023-03-21T03:38:07.130Z,100421.22
2023-03-21T03:39:12.354Z,100425.66
2023-03-21T03:40:25.849Z,100419.56
2023-03-21T03:42:12.664Z,100421.72
2023-03-21T03:43:25.346Z,100422.56
2023-03-21T03:44:28.628Z,100419.78
2023-03-21T03:45:47.863Z,100429.13
2023-03-21T03:47:26.220Z,100427.44
2023-03-21T03:48:37.542Z,100423.03
2023-03-21T03:49:54.538Z,100424.94
2023-03-21T03:51:06.447Z,100424.13
2023-03-21T03:52:55.264Z,100424.38
2023-03-21T03:54:04.629Z,100425.44
2023-03-21T03:55:11.554Z,100427.34
2023-03-21T03:56:17.171Z,100424.81
2023-03-21T03:57:20.449Z,100422.06
2023-03-21T03:58:36.145Z,100420.41
2023-03-21T03:59:46.753Z,100422.31
2023-03-21T04:00:56.177Z,100426.16
2023-03-21T04:01:58.766Z,100421.50
2023-03-21T04:03:01.830Z,100421.50
2023-03-21T04:04:12.971Z,100423.63
2023-03-21T04:05:21.347Z,100421.97
2023-03-21T04:06:24.518Z,100429.38
2023-03-21T04:07:27.982Z,100432.13
2023-03-21T04:08:34.392Z,100431.06
2023-03-21T04:09:44.018Z,100430.22
2023-03-21T04:10:48.503Z,100434.03
2023-03-21T04:11:51.234Z,100428.53
2023-03-21T04:12:54.323Z,100429.38
2023-03-21T04:13:56.839Z,100432.13
2023-03-21T04:15:09.545Z,100432.97
2023-03-21T04:16:14.562Z,100437.63
2023-03-21T04:17:18.828Z,100437.63
2023-03-21T04:18:23.452Z,100435.72
2023-03-21T04:19:25.679Z,100431.28
2023-03-21T04:20:43.125Z,100432.13
2023-03-21T04:21:46.712Z,100438.47
2023-03-21T04:22:49.116Z,100432.13
2023-03-21T04:23:51.859Z,100430.47
2023-03-21T04:24:54.988Z,100431.28
2023-03-21T04:25:57.570Z,100429.63
2023-03-21T04:27:11.225Z,100434.88
2023-03-21T04:28:17.661Z,100434.03
2023-03-21T04:29:29.953Z,100429.38
2023-03-21T04:30:35.123Z,100434.88
2023-03-21T04:31:46.187Z,100434.03
2023-03-21T04:32:56.871Z,100434.03
2023-03-21T04:34:03.179Z,100432.97
2023-03-21T04:35:08.466Z,100434.03
2023-03-21T04:36:26.550Z,100428.53
2023-03-21T04:37:34.086Z,100433.81
2023-03-21T04:38:37.184Z,100432.13
2023-03-21T04:39:40.318Z,100434.03
2023-03-21T04:40:42.590Z,100434.03
2023-03-21T04:41:46.448Z,100432.13
2023-03-21T04:42:48.680Z,100440.38
2023-03-21T04:43:52.718Z,100439.53
2023-03-21T04:44:56.074Z,100435.97
2023-03-21T04:46:00.941Z,100433.22
2023-03-21T04:47:03.666Z,100434.03
2023-03-21T04:48:06.443Z,100439.53
2023-03-21T04:49:11.473Z,100435.97
2023-03-21T04:50:14.003Z,100435.72
2023-03-21T04:51:16.755Z,100434.03
2023-03-21T04:52:19.369Z,100434.88
2023-03-21T04:53:22.778Z,100434.03
2023-03-21T04:54:25.789Z,100434.03
2023-03-21T04:55:29.618Z,100436.56
2023-03-21T04:56:36.363Z,100435.97
2023-03-21T04:57:38.849Z,100433.22
2023-03-21T04:58:42.681Z,100435.72
2023-03-21T04:59:45.327Z,100434.03
2023-03-21T05:00:47.822Z,100428.53
2023-03-21T05:01:50.761Z,100428.53
2023-03-21T05:02:52.925Z,100434.03
2023-03-21T05:04:04.481Z,100429.38
2023-03-21T05:05:11.415Z,100437.63
2023-03-21T05:06:15.894Z,100434.03
2023-03-21T05:07:18.761Z,100430.47
2023-03-21T05:08:21.476Z,100428.53
2023-03-21T05:09:23.790Z,100429.63
2023-03-21T05:10:26.791Z,100429.63
2023-03-21T05:11:33.443Z,100423.28
2023-03-21T05:12:35.956Z,100420.53
2023-03-21T05:13:38.216Z,100433.44
2023-03-21T05:14:40.564Z,100433.44
2023-03-21T05:15:43.091Z,100434.53
2023-03-21T05:16:53.509Z,100431.53
2023-03-21T05:17:58.829Z,100430.94
2023-03-21T05:19:05.077Z,100427.09
2023-03-21T05:20:16.167Z,100429.84
2023-03-21T05:21:19.354Z,100429.84
2023-03-21T05:22:26.912Z,100430.72
2023-03-21T05:23:31.708Z,100426.28
2023-03-21T05:24:34.552Z,100428.19
2023-03-21T05:25:38.668Z,100428.19
2023-03-21T05:27:02.521Z,100431.78
2023-03-21T05:28:08.252Z,100429.03
2023-03-21T05:29:12.347Z,100426.28
2023-03-21T05:30:17.837Z,100423.78
2023-03-21T05:31:22.478Z,100428.44
2023-03-21T05:32:29.355Z,100429.28
2023-03-21T05:33:33.030Z,100425.69
2023-03-21T05:34:35.727Z,100426.53
2023-03-21T05:35:38.727Z,100422.94
2023-03-21T05:36:43.988Z,100424.59
2023-03-21T05:37:47.213Z,100426.53
2023-03-21T05:38:51.451Z,100425.69
2023-03-21T05:39:54.919Z,100430.09
2023-03-21T05:41:06.000Z,100431.78
2023-03-21T05:42:08.438Z,100426.53
2023-03-21T05:43:10.760Z,100425.69
2023-03-21T05:44:13.614Z,100426.53
2023-03-21T05:45:16.760Z,100438.34
2023-03-21T05:46:19.142Z,100432.03
2023-03-21T05:47:21.394Z,100441.09
2023-03-21T05:48:23.735Z,100430.09
2023-03-21T05:49:49.963Z,100432.84
2023-03-21T05:50:53.901Z,100434.53
2023-03-21T05:51:57.691Z,100433.94
2023-03-21T05:53:01.321Z,100444.69
2023-03-21T05:54:03.931Z,100432.84
2023-03-21T05:55:07.117Z,100432.84
2023-03-21T05:56:10.001Z,100435.59
2023-03-21T05:57:39.711Z,100430.94
2023-03-21T05:58:44.585Z,100428.19
2023-03-21T05:59:47.438Z,100429.28
2023-03-21T06:00:49.950Z,100426.53
2023-03-21T06:02:00.190Z,100424.59
2023-03-21T06:03:02.436Z,100424.59
2023-03-21T06:04:24.707Z,100425.69
2023-03-21T06:05:27.249Z,100431.19
2023-03-21T06:06:31.130Z,100429.03
2023-03-21T06:07:38.692Z,100429.03
2023-03-21T06:08:41.185Z,100428.19
2023-03-21T06:09:43.547Z,100430.09
2023-03-21T06:10:45.905Z,100435.34
2023-03-21T06:11:52.393Z,100428.78
2023-03-21T06:13:13.797Z,100429.63
2023-03-21T06:14:16.823Z,100437.41
2023-03-21T06:15:20.548Z,100438.22
2023-03-21T06:16:28.990Z,100436.91
2023-03-21T06:17:32.991Z,100434.75
2023-03-21T06:18:39.517Z,100443.38
2023-03-21T06:20:03.935Z,100440.72
2023-03-21T06:21:11.988Z,100438.56
2023-03-21T06:22:19.255Z,100444.44
2023-03-21T06:23:21.528Z,100445.84
2023-03-21T06:24:23.973Z,100439.03
2023-03-21T06:25:26.186Z,100442.59
2023-03-21T06:26:28.419Z,100446.56
2023-03-21T06:27:32.038Z,100445.25
2023-03-21T06:28:34.779Z,100449.44
2023-03-21T06:29:37.026Z,100447.25
2023-03-21T06:30:40.614Z,100445.94
2023-03-21T06:31:50.977Z,100450.94
2023-03-21T06:32:55.168Z,100450.72
2023-03-21T06:33:57.538Z,100454.91
2023-03-21T06:34:59.801Z,100457.16
2023-03-21T06:36:03.584Z,100462.41
2023-03-21T06:37:06.725Z,100452.00
2023-03-21T06:38:10.979Z,100460.84
2023-03-21T06:39:16.112Z,100453.44
2023-03-21T06:40:20.636Z,100462.28
2023-03-21T06:41:23.399Z,100457.38
2023-03-21T06:42:36.468Z,100459.06
2023-03-21T06:43:45.819Z,100458.81
2023-03-21T06:44:48.035Z,100463.81
2023-03-21T06:45:51.632Z,100458.31
2023-03-21T06:46:54.311Z,100461.66
2023-03-21T06:47:57.305Z,100461.41
2023-03-21T06:49:26.142Z,100459.25
2023-03-21T06:50:29.924Z,100457.34
2023-03-21T06:51:32.374Z,100460.91
2023-03-21T06:52:42.518Z,100462.34
2023-03-21T06:53:45.071Z,100461.88
2023-03-21T06:55:01.051Z,100463.56
2023-03-21T06:56:03.447Z,100457.78
2023-03-21T06:57:07.002Z,100461.13
2023-03-21T06:58:10.606Z,100466.41
2023-03-21T06:59:13.366Z,100463.41
2023-03-21T07:00:34.454Z,100468.66
2023-03-21T07:01:38.459Z,100462.09
2023-03-21T07:02:42.792Z,100465.44
2023-03-21T07:03:49.744Z,100459.66
2023-03-21T07:04:54.468Z,100468.53
2023-03-21T07:05:59.282Z,100464.44
2023-03-21T07:07:01.693Z,100462.53
2023-03-21T07:08:04.108Z,100466.72
2023-03-21T07:09:10.188Z,100465.63
2023-03-21T07:10:13.385Z,100471.50
2023-03-21T07:11:39.609Z,100471.25
2023-03-21T07:12:42.028Z,100472.66
2023-03-21T07:14:05.391Z,100466.06
2023-03-21T07:15:09.071Z,100469.41
2023-03-21T07:16:12.232Z,100470.00
2023-03-21T07:17:14.455Z,100472.25
2023-03-21T07:18:17.492Z,100467.59
2023-03-21T07:19:19.959Z,100468.41
2023-03-21T07:20:22.756Z,100466.25
2023-03-21T07:21:25.188Z,100470.69
2023-03-21T07:22:29.025Z,100469.59
2023-03-21T07:23:31.346Z,100472.94
2023-03-21T07:24:36.088Z,100469.94
2023-03-21T07:25:39.768Z,100473.28
2023-03-21T07:26:42.462Z,100472.44
2023-03-21T07:27:44.688Z,100469.47
2023-03-21T07:28:46.897Z,100470.28
2023-03-21T07:29:50.596Z,100470.88
2023-03-21T07:30:56.073Z,100471.44
2023-03-21T07:31:58.529Z,100475.88
2023-03-21T07:33:01.160Z,100474.81
2023-03-21T07:34:03.780Z,100466.28
2023-03-21T07:35:09.116Z,100471.53
2023-03-21T07:36:16.064Z,100468.53
2023-03-21T07:37:18.467Z,100470.81
2023-03-21T07:38:21.457Z,100475.81
2023-03-21T07:39:24.800Z,100473.88
2023-03-21T07:40:27.774Z,100474.72
2023-03-21T07:41:31.166Z,100476.16
2023-03-21T07:42:47.318Z,100469.31
2023-03-21T07:43:49.524Z,100476.50
2023-03-21T07:44:52.854Z,100469.88
2023-03-21T07:45:59.592Z,100477.66
2023-03-21T07:47:02.340Z,100475.47
2023-03-21T07:48:04.693Z,100465.03
2023-03-21T07:49:09.436Z,100471.13
2023-03-21T07:50:11.866Z,100472.53
2023-03-21T07:51:15.051Z,100470.38
2023-03-21T07:52:18.343Z,100470.97
2023-03-21T07:53:22.035Z,100467.72
2023-03-21T07:54:24.637Z,100473.81
2023-03-21T07:55:27.366Z,100465.84
2023-03-21T07:56:29.651Z,100465.38
2023-03-21T07:57:32.078Z,100464.03
2023-03-21T07:58:36.572Z,100459.94
2023-03-21T07:59:38.875Z,100463.00
2023-03-21T08:00:43.416Z,100461.66
2023-03-21T08:01:45.649Z,100463.09
2023-03-21T08:02:49.073Z,100461.75
2023-03-21T08:03:53.880Z,100461.25
2023-03-21T08:04:56.448Z,100461.81
2023-03-21T08:06:01.772Z,100454.94
2023-03-21T08:07:04.128Z,100464.38
2023-03-21T08:08:06.767Z,100466.06
2023-03-21T08:09:11.076Z,100462.81
2023-03-21T08:10:13.370Z,100462.31
2023-03-21T08:11:21.632Z,100457.38
2023-03-21T08:12:23.856Z,100465.94
2023-03-21T08:13:26.216Z,100456.59
2023-03-21T08:14:28.884Z,100456.06
2023-03-21T08:15:31.721Z,100461.13
2023-03-21T08:16:34.003Z,100466.38
2023-03-21T08:17:38.292Z,100461.47
2023-03-21T08:18:40.652Z,100457.34
2023-03-21T08:19:42.938Z,100463.44
2023-03-21T08:20:45.364Z,100464.84
2023-03-21T08:21:49.573Z,100470.69
2023-03-21T08:22:52.147Z,100468.50
2023-03-21T08:23:54.877Z,100466.34
2023-03-21T08:24:57.161Z,100464.16
2023-03-21T08:25:59.434Z,100461.13
2023-03-21T08:27:02.402Z,100475.50
2023-03-21T08:28:05.883Z,100467.00
2023-03-21T08:29:13.061Z,100462.88
2023-03-21T08:30:18.698Z,100473.41
2023-03-21T08:31:22.071Z,100475.06
2023-03-21T08:32:29.479Z,100468.47
2023-03-21T08:33:32.872Z,100459.91
2023-03-21T08:34:35.726Z,100465.19
2023-03-21T08:35:40.924Z,100462.41
2023-03-21T08:36:44.040Z,100461.06
2023-03-21T08:37:46.684Z,100458.31
2023-03-21T08:38:55.326Z,100461.38
2023-03-21T08:39:59.632Z,100463.03
2023-03-21T08:41:03.110Z,100462.81
2023-03-21T08:42:06.186Z,100467.22
2023-03-21T08:43:08.541Z,100470.28
2023-03-21T08:44:11.249Z,100458.97
2023-03-21T08:45:15.425Z,100460.41
2023-03-21T08:46:18.927Z,100462.91
2023-03-21T08:47:21.315Z,100455.19
2023-03-21T08:48:23.761Z,100460.44
2023-03-21T08:49:29.552Z,100458.28
2023-03-21T08:50:32.030Z,100456.91
2023-03-21T08:51:37.789Z,100456.66
2023-03-21T08:52:42.613Z,100450.03
2023-03-21T08:53:45.158Z,100449.78
2023-03-21T08:54:48.593Z,100451.19
2023-03-21T08:55:51.644Z,100451.78
2023-03-21T08:56:54.004Z,100454.28
2023-03-21T08:57:58.676Z,100455.69
2023-03-21T08:59:03.381Z,100448.78
2023-03-21T09:00:13.004Z,100456.56
2023-03-21T09:01:15.954Z,100449.94
2023-03-21T09:02:21.168Z,100453.25
2023-03-21T09:03:24.761Z,100456.59
2023-03-21T09:04:27.812Z,100453.56
2023-03-21T09:05:30.132Z,100447.78
2023-03-21T09:06:33.648Z,100450.31
2023-03-21T09:07:36.540Z,100446.41
2023-03-21T09:08:39.433Z,100452.25
2023-03-21T09:09:41.912Z,100449.22
2023-03-21T09:10:44.149Z,100459.19
2023-03-21T09:11:46.422Z,100455.94
2023-03-21T09:12:52.060Z,100452.03
2023-03-21T09:13:54.353Z,100448.19
2023-03-21T09:14:58.232Z,100452.38
2023-03-21T09:16:01.731Z,100453.78
2023-03-21T09:17:04.381Z,100450.47
2023-03-21T09:18:16.384Z,100454.09
2023-03-21T09:19:19.062Z,100452.72
2023-03-21T09:20:33.181Z,100448.88
2023-03-21T09:21:37.216Z,100454.13
2023-03-21T09:22:42.777Z,100454.69
2023-03-21T09:23:45.483Z,100458.84
2023-03-21T09:24:49.808Z,100451.41
2023-03-21T09:25:52.181Z,100448.38
2023-03-21T09:26:54.660Z,100457.53
2023-03-21T09:27:58.307Z,100457.28
2023-03-21T09:29:01.116Z,100455.34
2023-03-21T09:30:06.211Z,100461.69
2023-03-21T09:31:11.825Z,100460.59
2023-03-21T09:32:16.408Z,100456.75
2023-03-21T09:33:19.484Z,100460.34
2023-03-21T09:34:23.158Z,100457.56
2023-03-21T09:35:27.128Z,100462.81
2023-03-21T09:36:32.075Z,100460.06
2023-03-21T09:37:34.409Z,100456.19
2023-03-21T09:38:37.087Z,100453.44
2023-03-21T09:39:44.907Z,100448.75
2023-03-21T09:40:50.002Z,100446.00
2023-03-21T09:42:17.992Z,100445.72
2023-03-21T09:43:51.592Z,100437.97
2023-03-21T09:45:35.458Z,100436.88
2023-03-21T09:46:52.108Z,100431.94
2023-03-21T09:47:54.697Z,100434.69
2023-03-21T09:49:01.731Z,100433.31
2023-03-21T09:50:20.693Z,100434.72
2023-03-21T09:51:27.277Z,100436.41
2023-03-21T09:52:45.731Z,100424.78
2023-03-21T09:53:51.969Z,100434.78
2023-03-21T09:54:55.812Z,100433.94
2023-03-21T09:56:00.028Z,100437.28
2023-03-21T09:57:15.633Z,100441.19
2023-03-21T09:58:29.665Z,100432.34
2023-03-21T09:59:38.330Z,100439.28
2023-03-21T10:00:46.017Z,100429.38
2023-03-21T10:01:49.542Z,100428.81
2023-03-21T10:02:57.532Z,100433.00
2023-03-21T10:04:06.606Z,100423.84
2023-03-21T10:05:24.619Z,100428.88
2023-03-21T10:06:30.970Z,100429.19
2023-03-21T10:07:38.925Z,100422.28
2023-03-21T10:08:45.274Z,100418.94
2023-03-21T10:09:49.084Z,100421.16
2023-03-21T10:10:57.060Z,100419.81
2023-03-21T10:12:04.325Z,100414.28
2023-03-21T10:13:15.478Z,100416.53
2023-03-21T10:14:42.406Z,100421.53
2023-03-21T10:15:47.872Z,100425.72
2023-03-21T10:16:56.801Z,100415.75
2023-03-21T10:18:05.307Z,100416.84
2023-03-21T10:19:14.527Z,100408.84
2023-03-21T10:20:21.541Z,100412.72
2023-03-21T10:21:56.649Z,100404.72
2023-03-21T10:22:52.685Z,100408.63
2023-03-21T10:23:57.495Z,100408.09
2023-03-21T10:24:59.738Z,100410.84
2023-03-21T10:26:05.475Z,100410.63
2023-03-21T10:27:07.999Z,100407.28
2023-03-21T10:28:21.412Z,100413.94
2023-03-21T10:29:32.315Z,100407.88
2023-03-21T10:30:42.359Z,100408.41
2023-03-21T10:31:46.581Z,100408.41
2023-03-21T10:32:49.686Z,100401.47
2023-03-21T10:33:55.798Z,100405.66
2023-03-21T10:34:58.966Z,100404.25
2023-03-21T10:36:06.932Z,100410.09
2023-03-21T10:37:11.288Z,100404.84
2023-03-21T10:38:18.259Z,100404.28
2023-03-21T10:39:28.803Z,100403.72
2023-03-21T10:40:33.022Z,100409.53
2023-03-21T10:41:36.185Z,100403.72
2023-03-21T10:42:38.783Z,100402.91
2023-03-21T10:43:41.854Z,100401.50
2023-03-21T10:44:48.099Z,100397.88
2023-03-21T10:45:50.620Z,100406.50
2023-03-21T10:47:08.138Z,100402.91
2023-03-21T10:48:11.093Z,100397.88
2023-03-21T10:49:16.187Z,100404.28
2023-03-21T10:50:25.218Z,100398.44
2023-03-21T10:51:33.439Z,100402.63
2023-03-21T10:52:41.803Z,100396.50
2023-03-21T10:53:55.985Z,100396.78
2023-03-21T10:55:09.005Z,100392.59
2023-03-21T10:56:12.257Z,100394.81
2023-03-21T10:57:22.688Z,100386.19
2023-03-21T10:58:33.485Z,100385.66
2023-03-21T10:59:43.091Z,100387.84
2023-03-21T11:00:49.542Z,100385.66
2023-03-21T11:01:55.744Z,100384.28
2023-03-21T11:02:58.725Z,100380.13
2023-03-21T11:04:06.785Z,100385.94
2023-03-21T11:05:22.987Z,100387.28
2023-03-21T11:06:34.595Z,100384.78
2023-03-21T11:07:37.804Z,100382.59
2023-03-21T11:08:47.656Z,100381.19
2023-03-21T11:09:57.885Z,100385.06
2023-03-21T11:11:08.666Z,100377.00
2023-03-21T11:12:33.793Z,100368.09
2023-03-21T11:13:43.683Z,100370.03
2023-03-21T11:14:49.436Z,100371.41
2023-03-21T11:16:03.819Z,100369.44
2023-03-21T11:17:27.144Z,100372.47
2023-03-21T11:18:33.385Z,100373.84
2023-03-21T11:19:36.576Z,100370.50
2023-03-21T11:20:45.059Z,100362.44
2023-03-21T11:21:47.493Z,100365.72
2023-03-21T11:22:54.496Z,100364.34
2023-03-21T11:23:57.511Z,100368.22
2023-03-21T11:25:02.004Z,100369.59
2023-03-21T11:26:11.799Z,100364.28
2023-03-21T11:27:14.080Z,100352.91
2023-03-21T11:28:25.653Z,100368.19
2023-03-21T11:29:42.767Z,100357.59
2023-03-21T11:31:03.763Z,100359.53
2023-03-21T11:32:27.179Z,100358.13
2023-03-21T11:33:40.722Z,100355.03
2023-03-21T11:34:49.969Z,100353.63
2023-03-21T11:36:06.394Z,100351.38
2023-03-21T11:37:19.122Z,100355.53
2023-03-21T11:38:32.088Z,100353.31
2023-03-21T11:39:43.855Z,100350.25
2023-03-21T11:42:00.155Z,100346.06
2023-03-21T11:43:24.762Z,100347.41
2023-03-21T11:44:43.327Z,100347.13
2023-03-21T11:46:06.136Z,100340.19
2023-03-21T11:47:10.426Z,100342.69
2023-03-21T11:48:14.871Z,100346.00
2023-03-21T11:49:17.809Z,100337.38
2023-03-21T11:50:40.142Z,100337.06
2023-03-21T11:51:59.719Z,100334.84
2023-03-21T11:53:20.255Z,100334.25
2023-03-21T11:54:36.068Z,100331.22
2023-03-21T11:56:06.074Z,100335.38
2023-03-21T11:57:43.989Z,100331.16
2023-03-21T11:58:57.299Z,100330.88
2023-03-21T12:00:14.644Z,100319.47
2023-03-21T12:01:33.258Z,100323.91
2023-03-21T12:03:14.830Z,100327.75
2023-03-21T12:04:51.420Z,100323.56
2023-03-21T12:05:56.831Z,100324.94
2023-03-21T12:07:09.608Z,100319.38
2023-03-21T12:08:38.069Z,100313.50
2023-03-21T12:09:45.420Z,100309.31
2023-03-21T12:11:00.554Z,100311.78
2023-03-21T12:12:02.707Z,100305.13
2023-03-21T12:13:13.989Z,100309.56
2023-03-21T12:14:43.697Z,100303.69
2023-03-21T12:16:06.667Z,100305.06
2023-03-21T12:17:26.311Z,100306.44
2023-03-21T12:18:46.468Z,100302.53
2023-03-21T12:19:49.560Z,100288.88
2023-03-21T12:21:15.892Z,100289.44
2023-03-21T12:22:33.057Z,100291.09
2023-03-21T12:23:53.082Z,100288.03
2023-03-21T12:25:06.486Z,100287.22
2023-03-21T12:26:27.974Z,100288.84
2023-03-21T12:27:52.878Z,100285.78
2023-03-21T12:29:27.173Z,100281.03
2023-03-21T12:31:11.498Z,100274.66
2023-03-21T12:32:42.909Z,100276.28
2023-03-21T12:33:45.058Z,100273.75
2023-03-21T12:34:53.404Z,100275.44
2023-03-21T12:36:40.562Z,100274.31
2023-03-21T12:38:26.228Z,100271.22
2023-03-21T12:39:33.848Z,100271.78
2023-03-21T12:40:48.247Z,100272.59
2023-03-21T12:42:06.824Z,100264.75
2023-03-21T12:43:14.829Z,100267.25
2023-03-21T12:44:21.298Z,100267.78
2023-03-21T12:45:45.677Z,100265.84
2023-03-21T12:47:07.016Z,100273.59
2023-03-21T12:48:16.480Z,100261.34
2023-03-21T12:49:29.891Z,100265.50
2023-03-21T12:50:39.029Z,100257.94
2023-03-21T12:51:48.674Z,100262.41
2023-03-21T12:52:56.201Z,100254.59
2023-03-21T12:54:13.264Z,100257.06
2023-03-21T12:55:35.585Z,100261.53
2023-03-21T12:57:12.968Z,100245.03
2023-03-21T12:58:20.537Z,100253.06
2023-03-21T12:59:32.008Z,100247.50
2023-03-21T13:00:45.506Z,100246.41
2023-03-21T13:01:51.902Z,100246.09
2023-03-21T13:03:19.613Z,100243.03
2023-03-21T13:05:00.846Z,100243.84
2023-03-21T13:06:06.508Z,100247.22
2023-03-21T13:07:14.865Z,100236.59
2023-03-21T13:08:32.014Z,100242.16
2023-03-21T13:09:40.237Z,100237.44